Airfield :
LOGIN :

Register | Disclaimer

   EN    FR    IT 

 










Legend :    VFR   Marginal VFR   IFR   Intensive IFR   Very Intensive IFR
Visi :
Ceiling :
>= 8 km
>= 3000ft
5 to 8 km
1000 to 3000 ft
1500m to 5 km
500 to 1000 ft
800 to 1500m
200 to 500 ft
< 800m
< 200 ft
Symbols :   Thunderstorms  Fog  Heavy snow  Heavy precipitations  Wind > 20 kt
SIGMETs :     Misc.  Thunderstorms  Icing  Turbulence  Mountain Waves  Volcanic Ashes






- Airport Elevation : 124 ft
- IATA code : NHT


EGWU - RAF Northolt

CURRENT METAR :
  • 201520Z 09007KT CAVOK 21/08 Q1012 NOSIG RMK BLU BLU

EXPIRED METARs :
  • 201450Z 07008KT 9999 FEW048 21/07 Q1012 NOSIG RMK BLU BLU
  • 201420Z 07008KT 9999 FEW046 20/06 Q1012 NOSIG RMK BLU BLU
  • 201350Z 08009KT 9999 FEW046 20/07 Q1013 NOSIG RMK BLU BLU
  • 201320Z 06006KT 9999 FEW045 20/08 Q1013 NOSIG RMK BLU BLU
  • 201250Z 07008KT 9999 FEW040 19/08 Q1013 NOSIG RMK BLU BLU
  • 201220Z 05008KT 9999 FEW042 19/09 Q1014 NOSIG RMK BLU BLU
  • 201150Z 05008KT 9999 FEW032 19/08 Q1014 NOSIG RMK BLU BLU
  • 201120Z 04008KT 9999 FEW025 18/08 Q1014 NOSIG RMK BLU BLU
  • 201050Z 04006KT 9999 FEW015 17/08 Q1014 NOSIG RMK BLU BLU

TAF TAF EGWU
Valid from the 20 at 15:00 until the 21 at 09:00 UTC


201343Z 2015/2109 04008KT 9999 FEW045
PROB30
TEMPO 2015/2019 7000 SHRA
BECMG 2101/2104 BKN007
PROB30
TEMPO 2102/2109 BKN006



MET'MAP, your aeronautical weather chart ! - Copyright ORBIFLY December 2007 - Disclaimer

ORBIFLY MET'MAP TEAM :

Programming & Development : Alexandra Zaïnal
Original concept : Baudouin d'Aumeries
Technical & hardware support : Manuel Goepfert
Assistance : Marc-Olivier Méhu




SOURCES & CREDITS :

   NOAA